createdAt,value
2022-09-26T00:01:47.049Z,6.83
2022-09-26T00:04:31.857Z,7.30
2022-09-26T00:07:07.621Z,7.70
2022-09-26T00:09:42.585Z,7.53
2022-09-26T00:12:17.580Z,8.33
2022-09-26T00:14:52.452Z,7.57
2022-09-26T00:17:27.367Z,7.77
2022-09-26T00:20:02.329Z,8.47
2022-09-26T00:22:37.219Z,7.70
2022-09-26T00:25:12.310Z,7.17
2022-09-26T00:27:47.188Z,8.23
2022-09-26T00:30:22.199Z,9.20
2022-09-26T00:32:58.177Z,8.60
2022-09-26T00:35:33.178Z,9.80
2022-09-26T00:38:08.036Z,8.73
2022-09-26T00:40:43.060Z,8.73
2022-09-26T00:43:34.839Z,8.50
2022-09-26T00:46:34.131Z,8.40
2022-09-26T00:49:38.630Z,7.70
2022-09-26T00:52:22.460Z,8.80
2022-09-26T00:55:01.547Z,8.40
2022-09-26T00:57:51.543Z,9.03
2022-09-26T01:00:27.259Z,9.00
2022-09-26T01:03:02.487Z,8.57
2022-09-26T01:05:38.289Z,9.00
2022-09-26T01:08:15.099Z,8.33
2022-09-26T01:10:50.510Z,8.57
2022-09-26T01:13:26.884Z,8.40
2022-09-26T01:16:02.578Z,10.27
2022-09-26T01:18:38.028Z,8.70
2022-09-26T01:21:32.696Z,9.40
2022-09-26T01:24:38.529Z,9.53
2022-09-26T01:27:44.056Z,9.17
2022-09-26T01:30:28.115Z,8.97
2022-09-26T01:33:31.790Z,9.00
2022-09-26T01:36:46.691Z,8.57
2022-09-26T01:40:02.936Z,9.40
2022-09-26T01:43:06.024Z,8.80
2022-09-26T01:45:59.147Z,9.40
2022-09-26T01:48:43.129Z,9.40
2022-09-26T01:51:33.200Z,8.10
2022-09-26T01:54:22.871Z,9.00
2022-09-26T01:57:00.586Z,9.60
2022-09-26T01:59:48.165Z,9.20
2022-09-26T02:02:28.077Z,9.33
2022-09-26T02:05:13.533Z,9.43
2022-09-26T02:08:46.408Z,9.40
2022-09-26T02:11:22.173Z,9.53
2022-09-26T02:14:04.210Z,9.43
2022-09-26T02:16:46.502Z,9.03
2022-09-26T02:19:29.516Z,9.57
2022-09-26T02:22:05.226Z,10.10
2022-09-26T02:24:40.185Z,9.37
2022-09-26T02:27:15.259Z,9.10
2022-09-26T02:29:50.210Z,9.30
2022-09-26T02:32:32.334Z,8.47
2022-09-26T02:35:27.265Z,7.80
2022-09-26T02:38:05.905Z,8.57
2022-09-26T02:40:52.152Z,8.67
2022-09-26T02:43:44.481Z,8.27
2022-09-26T02:47:26.720Z,7.80
2022-09-26T02:50:51.197Z,9.13
2022-09-26T02:53:39.697Z,8.00
2022-09-26T02:56:40.860Z,8.10
2022-09-26T03:00:07.302Z,8.37
2022-09-26T03:02:55.083Z,8.40
2022-09-26T03:05:33.051Z,8.73
2022-09-26T03:08:19.093Z,8.00
2022-09-26T03:10:59.789Z,6.83
2022-09-26T03:13:38.160Z,7.30
2022-09-26T03:16:14.856Z,6.90
2022-09-26T03:19:04.414Z,6.87
2022-09-26T03:21:40.697Z,6.30
2022-09-26T03:24:15.563Z,7.10
2022-09-26T03:26:51.641Z,6.80
2022-09-26T03:29:26.745Z,7.00
2022-09-26T03:32:02.633Z,6.63
2022-09-26T03:34:39.919Z,6.17
2022-09-26T03:37:16.132Z,7.10
2022-09-26T03:39:51.437Z,7.90
2022-09-26T03:42:33.482Z,9.50
2022-09-26T03:45:10.569Z,9.20
2022-09-26T03:48:06.188Z,8.37
2022-09-26T03:50:41.182Z,7.80
2022-09-26T03:53:16.050Z,7.07
2022-09-26T03:55:51.007Z,6.50
2022-09-26T03:58:25.902Z,7.23
2022-09-26T04:01:11.006Z,6.70
2022-09-26T04:03:50.798Z,6.43
2022-09-26T04:06:26.216Z,6.73
2022-09-26T04:09:02.430Z,6.10
2022-09-26T04:11:39.170Z,6.67
2022-09-26T04:14:14.920Z,6.63
2022-09-26T04:16:51.018Z,6.30
2022-09-26T04:19:36.361Z,6.80
2022-09-26T04:22:13.498Z,6.57
2022-09-26T04:24:48.962Z,7.17
2022-09-26T04:27:30.974Z,6.80
2022-09-26T04:30:06.737Z,6.87
2022-09-26T04:32:56.284Z,7.80
2022-09-26T04:35:52.785Z,7.93
2022-09-26T04:38:34.522Z,8.33
2022-09-26T04:41:20.789Z,6.87
2022-09-26T04:43:58.917Z,7.30
2022-09-26T04:46:34.062Z,6.83
2022-09-26T04:49:09.283Z,8.33
2022-09-26T04:51:45.447Z,8.23
2022-09-26T04:54:20.434Z,8.17
2022-09-26T04:56:55.320Z,7.40
2022-09-26T04:59:30.671Z,8.03
2022-09-26T05:02:10.778Z,6.70
2022-09-26T05:04:51.133Z,6.77
2022-09-26T05:07:29.426Z,6.33
2022-09-26T05:10:04.607Z,7.00
2022-09-26T05:12:46.486Z,6.33
2022-09-26T05:15:21.616Z,8.33
2022-09-26T05:18:00.890Z,6.70
2022-09-26T05:20:39.488Z,6.80
2022-09-26T05:23:42.174Z,6.83
2022-09-26T05:26:22.621Z,6.10
2022-09-26T05:29:08.572Z,7.47
2022-09-26T05:31:55.129Z,6.97
2022-09-26T05:34:31.937Z,7.03
2022-09-26T05:37:06.921Z,6.73
2022-09-26T05:40:00.465Z,7.00
2022-09-26T05:42:37.921Z,6.63
2022-09-26T05:45:13.716Z,6.70
2022-09-26T05:47:49.904Z,7.33
2022-09-26T05:50:25.262Z,7.63
2022-09-26T05:53:01.512Z,7.23
2022-09-26T05:55:39.132Z,8.77
2022-09-26T05:58:32.940Z,8.23
2022-09-26T06:01:35.081Z,8.57
2022-09-26T06:04:22.981Z,8.53
2022-09-26T06:07:17.806Z,7.80
2022-09-26T06:09:53.305Z,7.00
2022-09-26T06:12:40.475Z,6.70
2022-09-26T06:15:15.788Z,7.10
2022-09-26T06:18:04.278Z,5.73
2022-09-26T06:20:39.596Z,5.57
2022-09-26T06:23:14.575Z,6.90
2022-09-26T06:25:52.593Z,5.07
2022-09-26T06:28:28.300Z,5.10
2022-09-26T06:31:16.863Z,5.70
2022-09-26T06:34:15.098Z,5.50
2022-09-26T06:36:56.574Z,5.20
2022-09-26T06:39:35.622Z,5.47
2022-09-26T06:42:10.892Z,5.63
2022-09-26T06:45:10.567Z,5.57
2022-09-26T06:48:04.044Z,5.40
2022-09-26T06:51:00.122Z,5.40
2022-09-26T06:53:37.069Z,5.37
2022-09-26T06:56:13.310Z,5.43
2022-09-26T06:58:49.818Z,5.30
2022-09-26T07:01:26.175Z,4.33
2022-09-26T07:04:20.158Z,4.47
2022-09-26T07:07:18.021Z,4.77
2022-09-26T07:09:52.857Z,4.30
2022-09-26T07:12:47.204Z,3.33
2022-09-26T07:15:24.630Z,3.00
2022-09-26T07:18:02.605Z,3.03
2022-09-26T07:21:07.875Z,2.37
2022-09-26T07:24:06.462Z,2.33
2022-09-26T07:26:43.750Z,2.10
2022-09-26T07:29:18.724Z,2.47
2022-09-26T07:31:54.180Z,2.20
2022-09-26T07:34:54.245Z,1.73
2022-09-26T07:37:30.825Z,1.63
2022-09-26T07:40:07.970Z,1.73
2022-09-26T07:42:47.821Z,2.53
2022-09-26T07:45:51.937Z,1.50
2022-09-26T07:48:45.185Z,1.60
2022-09-26T07:51:49.661Z,1.63
2022-09-26T07:54:28.217Z,1.40
2022-09-26T07:57:21.645Z,1.30
2022-09-26T08:00:21.396Z,1.53
2022-09-26T08:03:14.040Z,1.50
2022-09-26T08:05:51.337Z,1.80
2022-09-26T08:08:26.836Z,1.57
2022-09-26T08:11:17.979Z,1.70
2022-09-26T08:14:14.201Z,1.40
2022-09-26T08:17:03.238Z,1.40
2022-09-26T08:19:38.162Z,1.70
2022-09-26T08:22:14.474Z,1.13
2022-09-26T08:24:50.848Z,1.60
2022-09-26T08:27:34.752Z,1.60
2022-09-26T08:30:10.534Z,1.40
2022-09-26T08:32:58.996Z,1.60
2022-09-26T08:35:41.285Z,1.63
2022-09-26T08:38:36.396Z,1.30
2022-09-26T08:42:32.836Z,1.50
2022-09-26T08:46:07.808Z,1.40
2022-09-26T08:49:35.044Z,1.30
2022-09-26T08:52:33.435Z,1.40
2022-09-26T08:55:25.917Z,1.53
2022-09-26T08:58:12.496Z,1.43
2022-09-26T09:00:54.924Z,1.50
2022-09-26T09:03:54.105Z,1.70
2022-09-26T09:06:29.484Z,1.60
2022-09-26T09:09:05.965Z,1.60
2022-09-26T09:12:06.784Z,1.37
2022-09-26T09:15:31.759Z,1.43
2022-09-26T09:18:52.801Z,1.60
2022-09-26T09:22:47.016Z,1.60
2022-09-26T09:25:35.449Z,1.60
2022-09-26T09:28:50.797Z,1.17
2022-09-26T09:31:30.669Z,1.30
2022-09-26T09:34:32.102Z,2.27
2022-09-26T09:37:52.249Z,1.20
2022-09-26T09:41:21.223Z,1.20
2022-09-26T09:44:01.443Z,1.10
2022-09-26T09:46:41.189Z,1.30
2022-09-26T09:49:24.109Z,1.30
2022-09-26T09:52:37.294Z,1.43
2022-09-26T09:55:21.108Z,1.40
2022-09-26T09:58:23.979Z,1.33
2022-09-26T10:01:13.891Z,1.23
2022-09-26T10:04:28.601Z,1.00
2022-09-26T10:07:05.299Z,1.00
2022-09-26T10:09:46.279Z,0.83
2022-09-26T10:12:59.001Z,0.97
2022-09-26T10:16:06.411Z,1.10
2022-09-26T10:19:03.904Z,0.83
2022-09-26T10:21:43.533Z,1.10
2022-09-26T10:24:34.303Z,0.87
2022-09-26T10:27:24.621Z,0.73
2022-09-26T10:30:04.950Z,0.70
2022-09-26T10:32:48.152Z,1.00
2022-09-26T10:35:47.474Z,1.00
2022-09-26T10:38:28.090Z,1.00
2022-09-26T10:41:24.498Z,0.70
2022-09-26T10:44:02.273Z,0.93
2022-09-26T10:47:08.519Z,0.80
2022-09-26T10:50:24.971Z,0.90
2022-09-26T10:53:23.012Z,0.80
2022-09-26T10:56:11.303Z,1.00
2022-09-26T10:58:47.201Z,0.80
2022-09-26T11:01:27.703Z,0.80
2022-09-26T11:04:36.679Z,0.80
2022-09-26T11:07:40.746Z,0.90
2022-09-26T11:10:32.336Z,0.70
2022-09-26T11:13:47.988Z,0.80
2022-09-26T11:16:24.565Z,0.80
2022-09-26T11:19:30.618Z,0.90
2022-09-26T11:22:25.112Z,0.80
2022-09-26T11:25:13.069Z,0.90
2022-09-26T11:28:07.052Z,0.67
2022-09-26T11:31:05.463Z,0.60
2022-09-26T11:33:45.148Z,0.70
2022-09-26T11:37:15.488Z,0.83
2022-09-26T11:40:06.091Z,0.80
2022-09-26T11:43:18.959Z,0.80
2022-09-26T11:46:23.990Z,0.73
2022-09-26T11:49:21.723Z,0.80
2022-09-26T11:52:54.945Z,0.70
2022-09-26T11:56:26.480Z,0.60
2022-09-26T11:59:54.153Z,0.80
2022-09-26T12:03:09.578Z,0.80
2022-09-26T12:06:33.287Z,1.10
2022-09-26T12:09:37.357Z,0.90
2022-09-26T12:12:40.425Z,0.90
2022-09-26T12:15:27.231Z,1.90
2022-09-26T12:18:28.333Z,1.33
2022-09-26T12:22:20.597Z,2.30
2022-09-26T12:25:01.032Z,1.93
2022-09-26T12:27:47.134Z,1.57
2022-09-26T12:30:37.722Z,1.70
2022-09-26T12:33:37.289Z,1.57
2022-09-26T12:36:21.408Z,1.20
2022-09-26T12:39:27.059Z,1.20
2022-09-26T12:42:19.913Z,1.00
2022-09-26T12:45:34.582Z,1.00
2022-09-26T12:49:06.691Z,1.10
2022-09-26T12:51:54.986Z,1.10
2022-09-26T12:55:15.286Z,0.80
2022-09-26T12:58:29.531Z,1.10
2022-09-26T13:01:49.653Z,0.80
2022-09-26T13:05:02.270Z,0.97
2022-09-26T13:08:04.816Z,1.10
2022-09-26T13:11:03.360Z,0.97
2022-09-26T13:14:12.221Z,0.80
2022-09-26T13:17:10.209Z,0.67
2022-09-26T13:20:24.189Z,0.80
2022-09-26T13:23:30.754Z,0.60
2022-09-26T13:26:31.540Z,0.50
2022-09-26T13:29:20.977Z,0.50
2022-09-26T13:32:17.626Z,0.50
2022-09-26T13:35:20.866Z,0.50
2022-09-26T13:38:28.410Z,0.67
2022-09-26T13:41:30.155Z,0.70
2022-09-26T13:44:31.102Z,0.70
2022-09-26T13:47:49.771Z,0.63
2022-09-26T13:50:47.937Z,0.50
2022-09-26T13:53:38.186Z,0.50
2022-09-26T13:56:41.714Z,0.50
2022-09-26T13:59:19.597Z,0.40
2022-09-26T14:02:19.732Z,0.60
2022-09-26T14:05:17.321Z,0.50
2022-09-26T14:08:11.991Z,0.50
2022-09-26T14:11:08.377Z,0.50
2022-09-26T14:13:43.272Z,0.50
2022-09-26T14:16:27.172Z,0.60
2022-09-26T14:19:20.745Z,0.70
2022-09-26T14:22:05.689Z,0.60
2022-09-26T14:24:42.351Z,0.60
2022-09-26T14:27:36.302Z,0.70
2022-09-26T14:30:13.901Z,0.60
2022-09-26T14:32:48.842Z,0.70
2022-09-26T14:35:32.320Z,0.60
2022-09-26T14:38:17.441Z,0.50
2022-09-26T14:41:01.734Z,0.70
2022-09-26T14:43:37.297Z,0.50
2022-09-26T14:46:25.985Z,0.70
2022-09-26T14:49:05.456Z,0.70
2022-09-26T14:51:42.604Z,0.60
2022-09-26T14:54:36.234Z,0.80
2022-09-26T14:57:25.392Z,0.70
2022-09-26T15:00:02.210Z,0.60
2022-09-26T15:02:41.602Z,0.60
2022-09-26T15:05:23.917Z,0.60
2022-09-26T15:08:01.014Z,0.70
2022-09-26T15:10:41.913Z,0.70
2022-09-26T15:13:21.062Z,0.50
2022-09-26T15:16:13.181Z,0.60
2022-09-26T15:18:56.476Z,0.50
2022-09-26T15:21:43.021Z,0.80
2022-09-26T15:24:36.604Z,0.63
2022-09-26T15:27:30.213Z,0.60
2022-09-26T15:30:17.297Z,0.90
2022-09-26T15:33:04.103Z,0.60
2022-09-26T15:35:39.485Z,0.60
2022-09-26T15:38:14.438Z,0.70
2022-09-26T15:41:06.587Z,0.70
2022-09-26T15:43:41.541Z,0.70
2022-09-26T15:46:26.977Z,0.70
2022-09-26T15:49:01.903Z,0.77
2022-09-26T15:51:39.274Z,0.70
2022-09-26T15:54:22.938Z,0.60
2022-09-26T15:57:02.060Z,0.63
2022-09-26T15:59:41.418Z,0.63
2022-09-26T16:02:29.259Z,0.60
2022-09-26T16:05:04.453Z,0.77
2022-09-26T16:07:41.549Z,1.73
2022-09-26T16:10:28.537Z,0.90
2022-09-26T16:13:03.665Z,0.90
2022-09-26T16:15:40.428Z,1.20
2022-09-26T16:18:27.123Z,1.07
2022-09-26T16:21:31.937Z,1.03
2022-09-26T16:24:34.080Z,0.77
2022-09-26T16:27:25.057Z,0.70
2022-09-26T16:30:04.177Z,0.70
2022-09-26T16:32:40.342Z,0.90
2022-09-26T16:35:19.651Z,0.70
2022-09-26T16:38:20.064Z,0.73
2022-09-26T16:41:04.130Z,0.80
2022-09-26T16:43:39.733Z,0.90
2022-09-26T16:46:18.080Z,0.80
2022-09-26T16:48:59.455Z,0.83
2022-09-26T16:51:40.901Z,0.80
2022-09-26T16:54:20.560Z,0.90
2022-09-26T16:56:55.457Z,0.90
2022-09-26T16:59:32.232Z,1.17
2022-09-26T17:02:09.784Z,1.10
2022-09-26T17:04:44.873Z,0.80
2022-09-26T17:07:19.906Z,0.90
2022-09-26T17:09:54.806Z,0.77
2022-09-26T17:12:30.408Z,0.90
2022-09-26T17:15:08.639Z,0.90
2022-09-26T17:17:43.529Z,0.80
2022-09-26T17:20:20.061Z,1.00
2022-09-26T17:22:54.932Z,1.00
2022-09-26T17:25:31.644Z,0.90
2022-09-26T17:28:07.287Z,0.90
2022-09-26T17:30:42.205Z,0.93
2022-09-26T17:33:17.116Z,0.83
2022-09-26T17:35:52.421Z,1.00
2022-09-26T17:38:27.427Z,0.90
2022-09-26T17:41:02.373Z,1.00
2022-09-26T17:43:37.471Z,0.80
2022-09-26T17:46:16.168Z,0.90
2022-09-26T17:48:51.360Z,1.23
2022-09-26T17:51:26.313Z,0.93
2022-09-26T17:54:03.667Z,0.80
2022-09-26T17:56:39.452Z,1.00
2022-09-26T17:59:24.583Z,0.80
2022-09-26T18:02:37.046Z,0.93
2022-09-26T18:05:22.848Z,0.70
2022-09-26T18:08:05.941Z,1.00
2022-09-26T18:10:50.128Z,0.90
2022-09-26T18:13:39.134Z,1.10
2022-09-26T18:16:16.167Z,0.93
2022-09-26T18:18:51.657Z,1.20
2022-09-26T18:21:28.401Z,0.87
2022-09-26T18:24:06.952Z,0.80
2022-09-26T18:26:47.403Z,1.03
2022-09-26T18:29:35.848Z,1.00
2022-09-26T18:32:23.476Z,0.90
2022-09-26T18:35:01.337Z,0.90
2022-09-26T18:37:36.266Z,1.20
2022-09-26T18:40:17.089Z,0.70
2022-09-26T18:42:54.773Z,1.00
2022-09-26T18:45:37.676Z,1.00
2022-09-26T18:48:25.710Z,1.27
2022-09-26T18:51:00.922Z,1.10
2022-09-26T18:53:37.589Z,1.03
2022-09-26T18:56:31.792Z,1.00
2022-09-26T18:59:10.120Z,1.00
2022-09-26T19:01:45.289Z,1.00
2022-09-26T19:04:22.851Z,1.10
2022-09-26T19:07:05.755Z,1.10
2022-09-26T19:09:40.592Z,1.10
2022-09-26T19:12:16.964Z,1.57
2022-09-26T19:14:51.924Z,1.30
2022-09-26T19:17:26.822Z,1.23
2022-09-26T19:20:02.163Z,1.20
2022-09-26T19:22:37.233Z,1.10
2022-09-26T19:25:12.298Z,1.80
2022-09-26T19:27:49.871Z,1.17
2022-09-26T19:30:24.756Z,1.47
2022-09-26T19:32:59.676Z,1.50
2022-09-26T19:35:39.366Z,1.40
2022-09-26T19:38:24.159Z,1.80
2022-09-26T19:40:59.843Z,1.43
2022-09-26T19:43:35.091Z,1.33
2022-09-26T19:46:19.262Z,1.40
2022-09-26T19:48:54.192Z,1.80
2022-09-26T19:51:37.773Z,1.30
2022-09-26T19:54:17.630Z,1.50
2022-09-26T19:56:52.996Z,1.30
2022-09-26T19:59:27.951Z,1.40
2022-09-26T20:02:04.322Z,1.00
2022-09-26T20:04:39.236Z,1.20
2022-09-26T20:07:18.238Z,1.10
2022-09-26T20:09:53.248Z,1.37
2022-09-26T20:12:28.155Z,1.03
2022-09-26T20:15:03.857Z,1.00
2022-09-26T20:17:41.620Z,1.10
2022-09-26T20:20:26.267Z,1.00
2022-09-26T20:23:02.477Z,1.10
2022-09-26T20:25:37.489Z,1.30
2022-09-26T20:28:15.481Z,1.30
2022-09-26T20:30:54.272Z,1.00
2022-09-26T20:33:29.465Z,1.00
2022-09-26T20:36:06.561Z,1.00
2022-09-26T20:38:47.827Z,1.00
2022-09-26T20:41:25.936Z,0.90
2022-09-26T20:44:07.622Z,0.90
2022-09-26T20:46:50.816Z,1.00
2022-09-26T20:49:35.575Z,1.03
2022-09-26T20:52:28.287Z,1.00
2022-09-26T20:55:03.719Z,1.23
2022-09-26T20:57:38.577Z,1.00
2022-09-26T21:00:16.222Z,1.00
2022-09-26T21:02:54.490Z,1.10
2022-09-26T21:05:29.454Z,1.00
2022-09-26T21:08:14.141Z,0.90
2022-09-26T21:10:49.039Z,1.20
2022-09-26T21:13:23.965Z,1.10
2022-09-26T21:15:59.927Z,1.13
2022-09-26T21:18:35.910Z,1.00
2022-09-26T21:21:23.045Z,0.80
2022-09-26T21:24:33.101Z,0.80
2022-09-26T21:27:12.899Z,0.90
2022-09-26T21:29:47.786Z,0.80
2022-09-26T21:32:23.577Z,0.80
2022-09-26T21:35:03.120Z,0.90
2022-09-26T21:37:38.070Z,0.60
2022-09-26T21:40:13.131Z,0.70
2022-09-26T21:42:51.195Z,0.50
2022-09-26T21:45:27.753Z,0.90
2022-09-26T21:48:02.952Z,0.67
2022-09-26T21:50:42.205Z,0.70
2022-09-26T21:53:41.266Z,0.60
2022-09-26T21:56:22.326Z,0.60
2022-09-26T21:58:57.786Z,0.90
2022-09-26T22:01:32.785Z,0.83
2022-09-26T22:04:08.380Z,0.60
2022-09-26T22:06:43.237Z,0.60
2022-09-26T22:09:18.132Z,0.80
2022-09-26T22:11:53.033Z,0.50
2022-09-26T22:14:28.596Z,0.60
2022-09-26T22:17:04.092Z,0.60
2022-09-26T22:19:39.053Z,0.57
2022-09-26T22:22:14.005Z,0.50
2022-09-26T22:24:48.950Z,0.60
2022-09-26T22:27:23.865Z,0.80
2022-09-26T22:29:58.804Z,0.50
2022-09-26T22:32:34.001Z,0.53
2022-09-26T22:35:09.127Z,0.70
2022-09-26T22:37:44.233Z,0.80
2022-09-26T22:40:19.209Z,0.70
2022-09-26T22:42:54.153Z,0.70
2022-09-26T22:45:29.030Z,0.60
2022-09-26T22:48:04.204Z,0.70
2022-09-26T22:50:39.078Z,0.73
2022-09-26T22:53:14.012Z,0.60
2022-09-26T22:55:58.025Z,0.60
2022-09-26T22:58:38.045Z,0.60
2022-09-26T23:01:20.323Z,0.60
2022-09-26T23:03:57.341Z,0.60
2022-09-26T23:06:32.458Z,0.70
2022-09-26T23:09:07.399Z,0.80
2022-09-26T23:11:42.470Z,0.60
2022-09-26T23:14:17.329Z,0.80
2022-09-26T23:16:52.332Z,1.00
2022-09-26T23:19:27.282Z,0.70
2022-09-26T23:22:02.174Z,0.60
2022-09-26T23:24:37.080Z,0.70
2022-09-26T23:27:12.093Z,0.77
2022-09-26T23:29:46.990Z,0.70
2022-09-26T23:32:21.919Z,0.80
2022-09-26T23:34:56.762Z,0.70
2022-09-26T23:37:32.362Z,0.60
2022-09-26T23:40:08.848Z,0.80
2022-09-26T23:42:43.742Z,0.70
2022-09-26T23:45:18.648Z,0.80
2022-09-26T23:47:53.624Z,0.80
2022-09-26T23:50:28.522Z,0.90
2022-09-26T23:53:06.583Z,0.70
2022-09-26T23:55:42.442Z,0.77
2022-09-26T23:58:17.762Z,0.93
